createdAt,value
2019-06-20T00:00:33.795Z,97.98
2019-06-20T00:01:33.636Z,97.67
2019-06-20T00:02:33.652Z,98.63
2019-06-20T00:03:33.627Z,98.63
2019-06-20T00:04:33.641Z,97.52
2019-06-20T00:05:34.467Z,98.73
2019-06-20T00:06:33.577Z,98.63
2019-06-20T00:07:33.561Z,98.73
2019-06-20T00:08:33.545Z,98.43
2019-06-20T00:09:33.640Z,98.78
2019-06-20T00:10:33.515Z,98.73
2019-06-20T00:11:33.522Z,98.68
2019-06-20T00:12:33.525Z,98.68
2019-06-20T00:13:33.708Z,98.98
2019-06-20T00:14:33.463Z,98.02
2019-06-20T00:15:33.575Z,98.93
2019-06-20T00:16:33.476Z,98.63
2019-06-20T00:17:33.461Z,98.02
2019-06-20T00:18:33.418Z,97.42
2019-06-20T00:19:33.492Z,98.88
2019-06-20T00:20:33.453Z,97.42
2019-06-20T00:21:33.403Z,97.52
2019-06-20T00:22:33.446Z,97.87
2019-06-20T00:23:33.392Z,98.53
2019-06-20T00:24:33.428Z,97.62
2019-06-20T00:25:33.368Z,98.17
2019-06-20T00:26:33.338Z,97.77
2019-06-20T00:27:33.352Z,97.97
2019-06-20T00:28:33.325Z,97.97
2019-06-20T00:29:33.468Z,97.92
2019-06-20T00:30:33.308Z,98.07
2019-06-20T00:31:33.280Z,98.07
2019-06-20T00:32:33.411Z,98.17
2019-06-20T00:33:33.291Z,97.36
2019-06-20T00:34:34.016Z,97.47
2019-06-20T00:35:33.226Z,97.56
2019-06-20T00:36:33.285Z,97.56
2019-06-20T00:37:33.260Z,97.56
2019-06-20T00:38:33.230Z,97.56
2019-06-20T00:39:33.225Z,98.07
2019-06-20T00:40:33.184Z,98.07
2019-06-20T00:41:33.158Z,97.51
2019-06-20T00:42:33.388Z,98.07
2019-06-20T00:43:33.263Z,98.02
2019-06-20T00:44:33.175Z,97.97
2019-06-20T00:45:33.265Z,98.32
2019-06-20T00:46:33.174Z,98.07
2019-06-20T00:47:33.097Z,97.87
2019-06-20T00:48:33.226Z,98.82
2019-06-20T00:49:33.103Z,97.87
2019-06-20T00:50:33.071Z,97.81
2019-06-20T00:51:33.079Z,97.97
2019-06-20T00:52:33.060Z,97.81
2019-06-20T00:53:33.173Z,97.67
2019-06-20T00:54:33.102Z,98.72
2019-06-20T00:55:33.044Z,98.58
2019-06-20T00:56:33.085Z,98.47
2019-06-20T00:57:33.052Z,97.97
2019-06-20T00:58:33.177Z,98.42
2019-06-20T00:59:33.028Z,97.97
2019-06-20T01:00:33.003Z,97.87
2019-06-20T01:01:32.958Z,98.07
2019-06-20T01:02:32.970Z,98.58
2019-06-20T01:03:32.938Z,98.07
2019-06-20T01:04:32.927Z,97.97
2019-06-20T01:05:32.901Z,98.07
2019-06-20T01:06:33.158Z,98.17
2019-06-20T01:07:32.914Z,98.37
2019-06-20T01:08:32.927Z,97.97
2019-06-20T01:09:32.974Z,97.97
2019-06-20T01:10:32.865Z,98.13
2019-06-20T01:11:32.855Z,97.77
2019-06-20T01:12:33.021Z,98.17
2019-06-20T01:13:34.303Z,97.56
2019-06-20T01:14:32.833Z,97.56
2019-06-20T01:15:32.854Z,97.92
2019-06-20T01:16:32.913Z,97.52
2019-06-20T01:17:32.772Z,97.52
2019-06-20T01:18:32.804Z,97.56
2019-06-20T01:19:32.775Z,97.47
2019-06-20T01:20:32.756Z,97.47
2019-06-20T01:21:32.763Z,97.47
2019-06-20T01:22:32.824Z,97.87
2019-06-20T01:23:32.731Z,98.58
2019-06-20T01:24:32.694Z,97.87
2019-06-20T01:25:32.701Z,97.87
2019-06-20T01:26:32.706Z,97.97
2019-06-20T01:27:32.697Z,97.97
2019-06-20T01:28:32.839Z,97.77
2019-06-20T01:29:32.769Z,97.97
2019-06-20T01:30:32.632Z,97.87
2019-06-20T01:31:32.622Z,98.07
2019-06-20T01:32:32.606Z,98.27
2019-06-20T01:33:32.669Z,97.77
2019-06-20T01:34:32.584Z,98.53
2019-06-20T01:35:32.640Z,98.58
2019-06-20T01:36:32.741Z,98.78
2019-06-20T01:37:32.577Z,98.07
2019-06-20T01:38:32.575Z,98.88
2019-06-20T01:39:32.680Z,97.97
2019-06-20T01:40:32.582Z,98.27
2019-06-20T01:41:32.520Z,98.47
2019-06-20T01:42:32.571Z,98.78
2019-06-20T01:43:32.501Z,98.13
2019-06-20T01:44:32.475Z,97.87
2019-06-20T01:45:32.471Z,98.27
2019-06-20T01:46:32.511Z,98.37
2019-06-20T01:47:32.432Z,98.68
2019-06-20T01:48:32.439Z,98.53
2019-06-20T01:49:32.435Z,98.78
2019-06-20T01:50:32.415Z,97.56
2019-06-20T01:51:32.404Z,98.17
2019-06-20T01:52:32.563Z,97.82
2019-06-20T01:53:32.394Z,97.92
2019-06-20T01:54:32.374Z,98.27
2019-06-20T01:55:32.415Z,97.62
2019-06-20T01:56:32.360Z,98.13
2019-06-20T01:57:32.431Z,97.72
2019-06-20T01:58:32.343Z,98.13
2019-06-20T01:59:32.312Z,98.43
2019-06-20T02:00:32.354Z,98.33
2019-06-20T02:01:32.318Z,97.22
2019-06-20T02:02:32.280Z,97.72
2019-06-20T02:03:32.350Z,98.13
2019-06-20T02:04:32.272Z,98.13
2019-06-20T02:05:32.259Z,98.22
2019-06-20T02:06:32.232Z,98.13
2019-06-20T02:07:32.282Z,97.82
2019-06-20T02:08:32.253Z,98.13
2019-06-20T02:09:32.303Z,98.13
2019-06-20T02:10:32.186Z,97.72
2019-06-20T02:11:32.315Z,99.08
2019-06-20T02:12:32.181Z,97.87
2019-06-20T02:13:32.157Z,97.97
2019-06-20T02:14:32.148Z,97.97
2019-06-20T02:15:32.193Z,98.88
2019-06-20T02:16:32.137Z,97.52
2019-06-20T02:17:32.125Z,98.47
2019-06-20T02:18:33.024Z,98.58
2019-06-20T02:19:32.108Z,97.67
2019-06-20T02:20:32.165Z,98.78
2019-06-20T02:21:32.152Z,98.07
2019-06-20T02:22:32.065Z,97.56
2019-06-20T02:23:32.087Z,98.78
2019-06-20T02:24:32.098Z,97.77
2019-06-20T02:25:32.014Z,98.17
2019-06-20T02:26:32.031Z,98.63
2019-06-20T02:27:31.987Z,98.63
2019-06-20T02:28:31.988Z,97.97
2019-06-20T02:29:32.041Z,97.67
2019-06-20T02:30:31.960Z,98.68
2019-06-20T02:31:31.999Z,97.77
2019-06-20T02:32:32.148Z,98.53
2019-06-20T02:33:32.019Z,97.56
2019-06-20T02:34:31.920Z,97.87
2019-06-20T02:35:32.036Z,98.02
2019-06-20T02:36:31.930Z,98.58
2019-06-20T02:37:32.001Z,97.77
2019-06-20T02:38:31.923Z,98.63
2019-06-20T02:39:31.892Z,97.87
2019-06-20T02:40:31.849Z,98.68
2019-06-20T02:41:31.907Z,97.67
2019-06-20T02:42:31.838Z,97.97
2019-06-20T02:43:31.892Z,97.97
2019-06-20T02:44:31.832Z,98.17
2019-06-20T02:45:31.956Z,97.77
2019-06-20T02:46:31.816Z,98.68
2019-06-20T02:47:32.499Z,98.07
2019-06-20T02:48:31.906Z,97.87
2019-06-20T02:49:31.807Z,97.47
2019-06-20T02:50:31.778Z,98.17
2019-06-20T02:51:31.794Z,98.27
2019-06-20T02:52:31.735Z,97.56
2019-06-20T02:53:31.709Z,97.77
2019-06-20T02:54:31.708Z,97.77
2019-06-20T02:55:31.742Z,97.32
2019-06-20T02:56:31.689Z,97.67
2019-06-20T02:57:31.685Z,97.72
2019-06-20T02:58:31.676Z,97.36
2019-06-20T02:59:31.647Z,97.36
2019-06-20T03:00:31.697Z,97.36
2019-06-20T03:01:31.763Z,97.42
2019-06-20T03:02:31.615Z,97.22
2019-06-20T03:03:31.602Z,97.97
2019-06-20T03:04:31.621Z,97.47
2019-06-20T03:05:31.584Z,97.82
2019-06-20T03:06:31.617Z,97.67
2019-06-20T03:07:31.618Z,97.77
2019-06-20T03:08:31.554Z,97.72
2019-06-20T03:09:31.540Z,98.02
2019-06-20T03:10:31.539Z,97.97
2019-06-20T03:11:31.571Z,97.16
2019-06-20T03:12:31.508Z,97.62
2019-06-20T03:13:31.485Z,97.36
2019-06-20T03:14:44.576Z,97.97
2019-06-20T03:15:32.485Z,97.62
2019-06-20T03:16:31.469Z,97.22
2019-06-20T03:17:31.489Z,97.22
2019-06-20T03:18:31.489Z,97.62
2019-06-20T03:19:31.441Z,97.67
2019-06-20T03:20:31.439Z,97.62
2019-06-20T03:21:31.411Z,97.06
2019-06-20T03:22:31.399Z,97.27
2019-06-20T03:23:31.415Z,97.62
2019-06-20T03:24:31.429Z,97.62
2019-06-20T03:25:31.369Z,97.16
2019-06-20T03:26:31.350Z,97.22
2019-06-20T03:27:31.355Z,97.27
2019-06-20T03:28:31.492Z,97.16
2019-06-20T03:29:31.337Z,97.16
2019-06-20T03:30:31.356Z,97.36
2019-06-20T03:31:31.420Z,97.27
2019-06-20T03:32:31.297Z,96.56
2019-06-20T03:33:31.267Z,97.32
2019-06-20T03:34:31.276Z,97.36
2019-06-20T03:35:31.282Z,96.76
2019-06-20T03:36:31.289Z,96.76
2019-06-20T03:37:31.231Z,96.86
2019-06-20T03:38:31.223Z,96.86
2019-06-20T03:39:31.209Z,96.86
2019-06-20T03:40:31.276Z,97.27
2019-06-20T03:41:31.280Z,97.82
2019-06-20T03:42:31.182Z,98.07
2019-06-20T03:43:31.172Z,97.67
2019-06-20T03:44:31.177Z,97.47
2019-06-20T03:45:31.140Z,97.27
2019-06-20T03:46:31.133Z,97.47
2019-06-20T03:47:31.340Z,96.76
2019-06-20T03:48:31.118Z,97.56
2019-06-20T03:49:31.102Z,97.97
2019-06-20T03:50:31.108Z,98.07
2019-06-20T03:51:31.078Z,97.67
2019-06-20T03:52:31.081Z,97.56
2019-06-20T03:53:31.087Z,97.36
2019-06-20T03:54:31.035Z,97.87
2019-06-20T03:55:31.222Z,97.56
2019-06-20T03:56:31.017Z,98.02
2019-06-20T03:57:31.038Z,98.22
2019-06-20T03:58:31.163Z,97.51
2019-06-20T03:59:31.080Z,97.51
2019-06-20T04:00:31.023Z,97.21
2019-06-20T04:01:31.091Z,98.02
2019-06-20T04:02:30.943Z,98.11
2019-06-20T04:03:30.972Z,97.21
2019-06-20T04:04:30.981Z,97.61
2019-06-20T04:05:30.920Z,98.22
2019-06-20T04:06:30.904Z,98.02
2019-06-20T04:07:30.880Z,98.32
2019-06-20T04:08:30.890Z,98.02
2019-06-20T04:09:30.890Z,97.91
2019-06-20T04:10:30.902Z,97.91
2019-06-20T04:11:30.832Z,98.82
2019-06-20T04:12:30.880Z,98.72
2019-06-20T04:13:30.877Z,98.72
2019-06-20T04:14:31.529Z,99.07
2019-06-20T04:15:30.797Z,98.67
2019-06-20T04:16:30.898Z,98.77
2019-06-20T04:17:30.995Z,98.97
2019-06-20T04:18:30.819Z,97.86
2019-06-20T04:19:31.525Z,98.07
2019-06-20T04:20:30.765Z,98.87
2019-06-20T04:21:30.790Z,99.07
2019-06-20T04:22:30.735Z,98.57
2019-06-20T04:23:30.812Z,99.18
2019-06-20T04:24:30.705Z,99.38
2019-06-20T04:25:30.721Z,99.27
2019-06-20T04:26:30.700Z,99.07
2019-06-20T04:27:30.778Z,98.57
2019-06-20T04:28:30.711Z,98.77
2019-06-20T04:29:30.710Z,97.76
2019-06-20T04:30:30.656Z,98.77
2019-06-20T04:31:30.639Z,98.87
2019-06-20T04:32:30.688Z,98.67
2019-06-20T04:33:30.790Z,98.47
2019-06-20T04:34:30.604Z,98.07
2019-06-20T04:35:30.589Z,98.57
2019-06-20T04:36:30.591Z,98.72
2019-06-20T04:37:30.627Z,98.02
2019-06-20T04:38:30.624Z,97.91
2019-06-20T04:39:30.582Z,97.81
2019-06-20T04:40:30.568Z,98.02
2019-06-20T04:41:30.659Z,97.61
2019-06-20T04:42:30.544Z,98.32
2019-06-20T04:43:30.491Z,97.81
2019-06-20T04:44:30.590Z,97.91
2019-06-20T04:45:35.179Z,97.21
2019-06-20T04:46:31.474Z,97.71
2019-06-20T04:47:30.466Z,97.81
2019-06-20T04:48:30.527Z,97.61
2019-06-20T04:49:31.046Z,97.67
2019-06-20T04:50:31.038Z,97.87
2019-06-20T04:51:30.425Z,97.36
2019-06-20T04:52:30.418Z,97.67
2019-06-20T04:53:30.398Z,96.66
2019-06-20T04:54:30.385Z,96.86
2019-06-20T04:55:30.370Z,96.91
2019-06-20T04:56:30.415Z,96.96
2019-06-20T04:57:30.350Z,96.70
2019-06-20T04:58:30.387Z,96.76
2019-06-20T04:59:30.372Z,96.80
2019-06-20T05:00:30.325Z,96.86
2019-06-20T05:01:30.310Z,96.96
2019-06-20T05:02:30.351Z,97.47
2019-06-20T05:03:30.793Z,97.77
2019-06-20T05:04:30.286Z,97.36
2019-06-20T05:05:30.270Z,96.60
2019-06-20T05:06:30.246Z,96.91
2019-06-20T05:07:30.243Z,97.47
2019-06-20T05:08:30.258Z,97.36
2019-06-20T05:09:30.217Z,97.36
2019-06-20T05:10:30.220Z,97.77
2019-06-20T05:11:30.190Z,97.36
2019-06-20T05:12:30.188Z,96.86
2019-06-20T05:13:30.367Z,97.87
2019-06-20T05:14:30.217Z,97.67
2019-06-20T05:15:30.142Z,97.36
2019-06-20T05:16:30.266Z,97.56
2019-06-20T05:17:30.119Z,97.87
2019-06-20T05:18:30.118Z,97.27
2019-06-20T05:19:30.135Z,97.56
2019-06-20T05:20:30.081Z,96.76
2019-06-20T05:21:30.226Z,96.66
2019-06-20T05:22:30.055Z,96.81
2019-06-20T05:23:30.064Z,97.22
2019-06-20T05:24:30.105Z,97.12
2019-06-20T05:25:30.069Z,96.86
2019-06-20T05:26:30.069Z,96.71
2019-06-20T05:27:30.024Z,96.71
2019-06-20T05:28:30.017Z,96.92
2019-06-20T05:29:30.035Z,97.52
2019-06-20T05:30:30.124Z,97.32
2019-06-20T05:31:29.961Z,96.71
2019-06-20T05:32:29.938Z,97.02
2019-06-20T05:33:29.940Z,97.62
2019-06-20T05:34:29.911Z,97.22
2019-06-20T05:35:30.025Z,96.92
2019-06-20T05:36:29.894Z,96.81
2019-06-20T05:37:29.883Z,97.92
2019-06-20T05:38:29.896Z,97.12
2019-06-20T05:39:29.882Z,97.32
2019-06-20T05:40:30.026Z,96.71
2019-06-20T05:41:29.902Z,96.92
2019-06-20T05:42:29.837Z,96.31
2019-06-20T05:43:29.905Z,96.41
2019-06-20T05:44:29.807Z,96.51
2019-06-20T05:45:29.796Z,97.12
2019-06-20T05:46:29.799Z,96.41
2019-06-20T05:47:29.787Z,96.06
2019-06-20T05:48:29.848Z,97.62
2019-06-20T05:49:29.757Z,97.62
2019-06-20T05:50:29.736Z,97.82
2019-06-20T05:51:29.745Z,96.71
2019-06-20T05:52:29.785Z,96.31
2019-06-20T05:53:29.696Z,96.61
2019-06-20T05:54:29.762Z,97.32
2019-06-20T05:55:29.701Z,97.52
2019-06-20T05:56:29.672Z,98.33
2019-06-20T05:57:29.654Z,98.33
2019-06-20T05:58:29.764Z,98.27
2019-06-20T05:59:30.568Z,98.27
2019-06-20T06:00:29.621Z,98.07
2019-06-20T06:01:29.702Z,98.07
2019-06-20T06:02:29.595Z,97.56
2019-06-20T06:03:30.554Z,98.07
2019-06-20T06:04:29.703Z,98.17
2019-06-20T06:05:29.559Z,97.67
2019-06-20T06:06:30.004Z,97.97
2019-06-20T06:07:29.683Z,97.92
2019-06-20T06:08:29.548Z,97.67
2019-06-20T06:09:29.614Z,96.96
2019-06-20T06:10:29.665Z,96.92
2019-06-20T06:11:29.568Z,96.51
2019-06-20T06:12:29.567Z,96.61
2019-06-20T06:13:29.497Z,97.32
2019-06-20T06:14:29.460Z,97.12
2019-06-20T06:15:29.483Z,97.22
2019-06-20T06:16:29.432Z,96.31
2019-06-20T06:17:29.436Z,96.71
2019-06-20T06:18:29.492Z,95.61
2019-06-20T06:19:29.487Z,95.90
2019-06-20T06:20:29.383Z,96.31
2019-06-20T06:21:29.447Z,96.31
2019-06-20T06:22:29.374Z,96.21
2019-06-20T06:23:30.088Z,95.20
2019-06-20T06:24:29.343Z,96.21
2019-06-20T06:25:29.348Z,96.61
2019-06-20T06:26:30.061Z,95.90
2019-06-20T06:27:29.302Z,96.11
2019-06-20T06:28:29.318Z,95.26
2019-06-20T06:29:29.308Z,95.96
2019-06-20T06:30:29.346Z,96.26
2019-06-20T06:31:29.269Z,96.21
2019-06-20T06:32:39.669Z,95.30
2019-06-20T06:33:30.251Z,95.06
2019-06-20T06:34:29.248Z,95.20
2019-06-20T06:35:29.278Z,94.75
2019-06-20T06:36:29.211Z,95.46
2019-06-20T06:37:29.186Z,95.36
2019-06-20T06:38:29.175Z,94.70
2019-06-20T06:39:29.186Z,95.56
2019-06-20T06:40:30.138Z,95.46
2019-06-20T06:41:29.171Z,95.50
2019-06-20T06:42:29.261Z,96.21
2019-06-20T06:43:29.151Z,95.40
2019-06-20T06:44:31.695Z,95.70
2019-06-20T06:45:29.150Z,95.06
2019-06-20T06:46:42.920Z,95.10
2019-06-20T06:47:30.078Z,96.01
2019-06-20T06:48:29.061Z,96.06
2019-06-20T06:49:29.048Z,96.11
2019-06-20T06:50:29.154Z,95.61
2019-06-20T06:51:29.057Z,96.11
2019-06-20T06:52:29.051Z,96.01
2019-06-20T06:53:29.112Z,94.90
2019-06-20T06:54:28.998Z,96.11
2019-06-20T06:55:29.005Z,94.80
2019-06-20T06:56:28.978Z,95.61
2019-06-20T06:57:28.966Z,95.15
2019-06-20T06:58:28.966Z,94.05
2019-06-20T06:59:28.948Z,95.46
2019-06-20T07:00:28.967Z,95.96
2019-06-20T07:01:28.919Z,95.26
2019-06-20T07:02:29.005Z,94.55
2019-06-20T07:03:28.917Z,94.15
2019-06-20T07:04:28.887Z,93.74
2019-06-20T07:05:28.892Z,92.23
2019-06-20T07:06:28.899Z,93.44
2019-06-20T07:07:28.855Z,94.05
2019-06-20T07:08:28.903Z,93.54
2019-06-20T07:09:29.060Z,92.59
2019-06-20T07:10:28.830Z,93.10
2019-06-20T07:11:28.849Z,92.99
2019-06-20T07:12:28.814Z,93.10
2019-06-20T07:13:28.804Z,92.85
2019-06-20T07:14:28.778Z,93.46
2019-06-20T07:15:28.781Z,93.05
2019-06-20T07:16:28.802Z,92.25
2019-06-20T07:17:28.736Z,92.05
2019-06-20T07:18:28.748Z,93.26
2019-06-20T07:19:28.766Z,92.25
2019-06-20T07:20:28.711Z,91.44
2019-06-20T07:21:28.695Z,90.73
2019-06-20T07:22:28.686Z,88.92
2019-06-20T07:23:28.678Z,89.32
2019-06-20T07:24:28.668Z,90.53
2019-06-20T07:25:28.841Z,89.43
2019-06-20T07:26:28.689Z,88.88
2019-06-20T07:27:28.637Z,88.68
2019-06-20T07:28:28.709Z,89.23
2019-06-20T07:29:28.607Z,87.37
2019-06-20T07:30:28.628Z,88.88
2019-06-20T07:31:28.596Z,88.28
2019-06-20T07:32:28.574Z,89.18
2019-06-20T07:33:28.702Z,87.47
2019-06-20T07:34:28.552Z,87.57
2019-06-20T07:35:28.548Z,87.57
2019-06-20T07:36:28.581Z,87.67
2019-06-20T07:37:28.587Z,87.47
2019-06-20T07:38:28.540Z,90.59
2019-06-20T07:39:28.503Z,92.10
2019-06-20T07:40:28.520Z,90.29
2019-06-20T07:41:28.474Z,88.88
2019-06-20T07:42:28.462Z,89.69
2019-06-20T07:43:28.494Z,90.09
2019-06-20T07:44:28.452Z,88.58
2019-06-20T07:45:28.445Z,89.59
2019-06-20T07:46:28.480Z,90.59
2019-06-20T07:47:28.402Z,91.19
2019-06-20T07:48:28.479Z,90.99
2019-06-20T07:49:28.445Z,88.58
2019-06-20T07:50:28.374Z,87.77
2019-06-20T07:51:28.399Z,86.26
2019-06-20T07:52:28.351Z,88.38
2019-06-20T07:53:28.378Z,87.87
2019-06-20T07:54:28.382Z,88.88
2019-06-20T07:55:28.511Z,89.39
2019-06-20T07:56:28.314Z,89.23
2019-06-20T07:57:28.299Z,85.40
2019-06-20T07:58:28.292Z,85.30
2019-06-20T07:59:28.345Z,89.83
2019-06-20T08:00:28.358Z,89.63
2019-06-20T08:01:28.249Z,91.28
2019-06-20T08:02:28.367Z,90.78
2019-06-20T08:03:28.254Z,90.98
2019-06-20T08:04:28.241Z,89.37
2019-06-20T08:05:28.310Z,88.16
2019-06-20T08:06:28.202Z,89.47
2019-06-20T08:07:28.184Z,90.78
2019-06-20T08:08:28.179Z,88.96
2019-06-20T08:09:43.944Z,87.85
2019-06-20T08:10:29.323Z,86.15
2019-06-20T08:11:28.138Z,88.12
2019-06-20T08:12:28.128Z,85.70
2019-06-20T08:13:28.123Z,86.51
2019-06-20T08:14:28.104Z,87.62
2019-06-20T08:15:28.125Z,87.51
2019-06-20T08:16:28.096Z,85.86
2019-06-20T08:17:35.170Z,86.26
2019-06-20T08:18:29.053Z,85.36
2019-06-20T08:19:28.066Z,88.58
2019-06-20T08:20:28.040Z,84.85
2019-06-20T08:21:28.083Z,84.35
2019-06-20T08:22:28.011Z,83.45
2019-06-20T08:23:28.011Z,86.57
2019-06-20T08:24:27.989Z,87.67
2019-06-20T08:25:28.007Z,87.17
2019-06-20T08:26:28.111Z,84.11
2019-06-20T08:27:27.962Z,87.13
2019-06-20T08:28:28.001Z,85.52
2019-06-20T08:29:27.949Z,87.13
2019-06-20T08:30:27.960Z,88.34
2019-06-20T08:31:27.928Z,84.01
2019-06-20T08:32:27.920Z,84.01
2019-06-20T08:33:27.930Z,84.21
2019-06-20T08:34:27.905Z,86.72
2019-06-20T08:35:27.867Z,88.43
2019-06-20T08:36:27.859Z,88.64
2019-06-20T08:37:27.850Z,85.36
2019-06-20T08:38:27.891Z,83.61
2019-06-20T08:39:29.360Z,87.02
2019-06-20T08:40:27.813Z,82.54
2019-06-20T08:41:27.802Z,83.71
2019-06-20T08:42:27.986Z,87.67
2019-06-20T08:43:27.788Z,85.56
2019-06-20T08:44:27.825Z,86.26
2019-06-20T08:45:27.861Z,86.16
2019-06-20T08:46:27.752Z,84.09
2019-06-20T08:47:27.750Z,84.59
2019-06-20T08:48:27.922Z,85.40
2019-06-20T08:49:27.736Z,87.51
2019-06-20T08:50:27.778Z,83.59
2019-06-20T08:51:27.702Z,87.31
2019-06-20T08:52:28.619Z,87.17
2019-06-20T08:53:27.704Z,84.65
2019-06-20T08:54:27.755Z,87.77
2019-06-20T08:55:27.706Z,85.76
2019-06-20T08:56:27.665Z,87.33
2019-06-20T08:57:27.635Z,85.92
2019-06-20T08:58:27.638Z,86.02
2019-06-20T08:59:27.600Z,87.63
2019-06-20T09:00:27.590Z,87.73
2019-06-20T09:01:27.751Z,88.23
2019-06-20T09:02:27.568Z,87.02
2019-06-20T09:03:27.561Z,85.46
2019-06-20T09:04:27.573Z,80.93
2019-06-20T09:05:30.419Z,86.66
2019-06-20T09:06:27.536Z,86.66
2019-06-20T09:07:27.544Z,87.21
2019-06-20T09:08:27.515Z,87.47
2019-06-20T09:09:27.574Z,87.71
2019-06-20T09:10:27.481Z,85.50
2019-06-20T09:11:27.504Z,83.59
2019-06-20T09:12:27.560Z,80.97
2019-06-20T09:13:27.465Z,83.59
2019-06-20T09:14:27.472Z,81.27
2019-06-20T09:15:27.433Z,84.65
2019-06-20T09:16:27.420Z,85.70
2019-06-20T09:17:27.407Z,85.10
2019-06-20T09:18:27.393Z,82.78
2019-06-20T09:19:27.379Z,83.95
2019-06-20T09:20:27.394Z,87.37
2019-06-20T09:21:27.376Z,82.64
2019-06-20T09:22:27.490Z,85.36
2019-06-20T09:23:27.335Z,86.63
2019-06-20T09:24:27.325Z,84.81
2019-06-20T09:25:27.383Z,84.41
2019-06-20T09:26:27.337Z,81.56
2019-06-20T09:27:27.295Z,80.65
2019-06-20T09:28:27.287Z,78.84
2019-06-20T09:29:40.891Z,84.83
2019-06-20T09:30:28.459Z,79.10
2019-06-20T09:31:27.255Z,79.71
2019-06-20T09:32:27.269Z,82.52
2019-06-20T09:33:27.253Z,83.59
2019-06-20T09:34:27.208Z,83.23
2019-06-20T09:35:27.193Z,81.01
2019-06-20T09:36:27.247Z,79.41
2019-06-20T09:37:27.175Z,79.47
2019-06-20T09:38:27.208Z,78.46
2019-06-20T09:39:27.153Z,78.27
2019-06-20T09:40:27.162Z,79.47
2019-06-20T09:41:27.277Z,83.18
2019-06-20T09:42:27.129Z,82.28
2019-06-20T09:43:28.088Z,78.46
2019-06-20T09:44:27.114Z,77.32
2019-06-20T09:45:27.104Z,83.45
2019-06-20T09:46:27.084Z,79.43
2019-06-20T09:47:27.081Z,81.34
2019-06-20T09:48:27.092Z,75.62
2019-06-20T09:49:27.071Z,74.21
2019-06-20T09:50:27.038Z,76.92
2019-06-20T09:51:27.021Z,75.25
2019-06-20T09:52:27.021Z,80.54
2019-06-20T09:53:27.016Z,79.73
2019-06-20T09:54:27.068Z,77.16
2019-06-20T09:55:26.984Z,76.86
2019-06-20T09:56:26.979Z,83.59
2019-06-20T09:57:27.118Z,78.63
2019-06-20T09:58:26.933Z,76.92
2019-06-20T09:59:28.002Z,77.19
2019-06-20T10:00:26.961Z,82.70
2019-06-20T10:01:26.914Z,81.40
2019-06-20T10:02:26.901Z,78.99
2019-06-20T10:03:26.894Z,80.86
2019-06-20T10:04:26.882Z,78.96
2019-06-20T10:05:27.063Z,80.70
2019-06-20T10:06:26.871Z,76.28
2019-06-20T10:07:26.850Z,74.34
2019-06-20T10:08:26.841Z,77.05
2019-06-20T10:09:26.824Z,73.94
2019-06-20T10:10:26.835Z,74.84
2019-06-20T10:11:26.819Z,73.30
2019-06-20T10:12:26.790Z,78.52
2019-06-20T10:13:26.891Z,74.40
2019-06-20T10:14:27.005Z,73.67
2019-06-20T10:15:26.772Z,77.28
2019-06-20T10:16:26.740Z,79.28
2019-06-20T10:17:26.769Z,80.18
2019-06-20T10:18:26.754Z,75.43
2019-06-20T10:19:26.727Z,73.73
2019-06-20T10:20:26.708Z,74.43
2019-06-20T10:21:26.764Z,78.74
2019-06-20T10:22:26.674Z,78.94
2019-06-20T10:23:26.685Z,77.48
2019-06-20T10:24:27.637Z,79.28
2019-06-20T10:25:26.640Z,72.36
2019-06-20T10:26:26.633Z,75.77
2019-06-20T10:27:26.710Z,73.36
2019-06-20T10:28:26.621Z,71.96
2019-06-20T10:29:26.623Z,71.16
2019-06-20T10:30:26.597Z,78.24
2019-06-20T10:31:26.595Z,77.74
2019-06-20T10:32:26.575Z,76.57
2019-06-20T10:33:26.560Z,76.87
2019-06-20T10:34:26.541Z,80.15
2019-06-20T10:35:26.528Z,73.27
2019-06-20T10:36:26.556Z,73.77
2019-06-20T10:37:26.559Z,76.47
2019-06-20T10:38:26.526Z,78.14
2019-06-20T10:39:26.498Z,76.84
2019-06-20T10:40:26.715Z,76.37
2019-06-20T10:41:26.464Z,74.37
2019-06-20T10:42:26.482Z,75.93
2019-06-20T10:43:26.459Z,74.73
2019-06-20T10:44:26.433Z,72.83
2019-06-20T10:45:26.423Z,70.79
2019-06-20T10:46:26.427Z,71.09
2019-06-20T10:47:33.640Z,69.59
2019-06-20T10:48:27.404Z,70.59
2019-06-20T10:49:26.375Z,75.60
2019-06-20T10:50:26.410Z,69.26
2019-06-20T10:51:26.436Z,72.09
2019-06-20T10:52:26.359Z,73.80
2019-06-20T10:53:26.363Z,70.06
2019-06-20T10:54:26.361Z,71.06
2019-06-20T10:55:27.146Z,70.66
2019-06-20T10:56:26.300Z,70.86
2019-06-20T10:57:26.318Z,76.67
2019-06-20T10:58:26.306Z,71.26
2019-06-20T10:59:26.343Z,75.67
2019-06-20T11:00:31.237Z,78.36
2019-06-20T11:01:27.331Z,77.20
2019-06-20T11:02:26.253Z,73.10
2019-06-20T11:03:26.221Z,75.70
2019-06-20T11:04:26.286Z,78.60
2019-06-20T11:05:26.227Z,71.59
2019-06-20T11:06:26.202Z,73.60
2019-06-20T11:07:26.247Z,69.89
2019-06-20T11:08:26.190Z,72.96
2019-06-20T11:09:26.155Z,74.70
2019-06-20T11:10:26.175Z,79.21
2019-06-20T11:11:26.175Z,72.60
2019-06-20T11:12:26.125Z,71.30
2019-06-20T11:13:26.124Z,74.60
2019-06-20T11:14:26.102Z,77.80
2019-06-20T11:15:26.140Z,69.59
2019-06-20T11:16:26.098Z,74.90
2019-06-20T11:17:26.102Z,74.50
2019-06-20T11:18:26.067Z,75.80
2019-06-20T11:19:26.044Z,76.04
2019-06-20T11:20:26.144Z,70.43
2019-06-20T11:21:26.653Z,73.83
2019-06-20T11:22:26.032Z,72.73
2019-06-20T11:23:26.068Z,68.73
2019-06-20T11:24:26.012Z,75.30
2019-06-20T11:25:25.996Z,69.93
2019-06-20T11:26:25.987Z,70.89
2019-06-20T11:27:25.967Z,73.70
2019-06-20T11:28:25.980Z,71.53
2019-06-20T11:29:25.945Z,77.20
2019-06-20T11:30:25.957Z,70.43
2019-06-20T11:31:25.968Z,72.93
2019-06-20T11:32:25.908Z,71.50
2019-06-20T11:33:25.934Z,69.62
2019-06-20T11:34:25.965Z,71.73
2019-06-20T11:35:25.934Z,76.74
2019-06-20T11:36:25.862Z,70.26
2019-06-20T11:37:25.880Z,74.17
2019-06-20T11:38:25.843Z,78.31
2019-06-20T11:39:25.922Z,78.02
2019-06-20T11:40:25.813Z,78.72
2019-06-20T11:41:25.810Z,78.92
2019-06-20T11:42:25.806Z,79.62
2019-06-20T11:43:25.793Z,79.12
2019-06-20T11:44:25.770Z,76.21
2019-06-20T11:45:25.795Z,77.31
2019-06-20T11:46:25.843Z,82.53
2019-06-20T11:47:25.813Z,80.32
2019-06-20T11:48:25.742Z,81.26
2019-06-20T11:49:25.707Z,82.93
2019-06-20T11:50:25.765Z,75.04
2019-06-20T11:51:25.692Z,79.05
2019-06-20T11:52:25.754Z,78.55
2019-06-20T11:53:25.693Z,82.97
2019-06-20T11:54:25.649Z,81.76
2019-06-20T11:55:25.664Z,80.96
2019-06-20T11:56:25.647Z,77.65
2019-06-20T11:57:25.683Z,82.97
2019-06-20T11:58:25.669Z,78.55
2019-06-20T11:59:25.607Z,80.56
2019-06-20T12:00:25.597Z,81.56
2019-06-20T12:01:32.831Z,84.17
2019-06-20T12:02:26.583Z,81.76
2019-06-20T12:03:25.764Z,77.25
2019-06-20T12:04:25.559Z,77.25
2019-06-20T12:05:25.533Z,80.86
2019-06-20T12:06:25.618Z,77.25
2019-06-20T12:07:25.513Z,80.46
2019-06-20T12:08:25.549Z,81.56
2019-06-20T12:09:25.501Z,82.67
2019-06-20T12:10:25.484Z,83.97
2019-06-20T12:11:25.463Z,79.29
2019-06-20T12:12:25.481Z,82.81
2019-06-20T12:13:25.462Z,82.70
2019-06-20T12:14:25.479Z,83.91
2019-06-20T12:15:25.480Z,78.79
2019-06-20T12:16:25.408Z,79.19
2019-06-20T12:17:25.413Z,77.39
2019-06-20T12:18:25.391Z,79.60
2019-06-20T12:19:25.556Z,80.70
2019-06-20T12:20:25.439Z,81.40
2019-06-20T12:21:25.372Z,82.60
2019-06-20T12:22:25.345Z,80.70
2019-06-20T12:23:25.346Z,79.49
2019-06-20T12:24:25.390Z,79.09
2019-06-20T12:25:25.351Z,81.30
2019-06-20T12:26:25.300Z,81.30
2019-06-20T12:27:25.393Z,78.99
2019-06-20T12:28:25.404Z,80.10
2019-06-20T12:29:25.345Z,79.60
2019-06-20T12:30:25.275Z,79.39
2019-06-20T12:31:25.243Z,78.39
2019-06-20T12:32:25.262Z,75.58
2019-06-20T12:33:25.257Z,77.79
2019-06-20T12:34:25.243Z,78.99
2019-06-20T12:35:25.216Z,78.99
2019-06-20T12:36:25.284Z,78.89
2019-06-20T12:37:25.170Z,80.60
2019-06-20T12:38:25.198Z,80.60
2019-06-20T12:39:25.179Z,80.10
2019-06-20T12:40:25.199Z,80.96
2019-06-20T12:41:25.135Z,76.18
2019-06-20T12:42:25.140Z,77.45
2019-06-20T12:43:26.186Z,80.36
2019-06-20T12:44:25.144Z,82.97
2019-06-20T12:45:25.159Z,80.72
2019-06-20T12:46:25.234Z,78.35
2019-06-20T12:47:25.061Z,80.26
2019-06-20T12:48:25.079Z,77.25
2019-06-20T12:49:25.142Z,73.54
2019-06-20T12:50:25.052Z,78.75
2019-06-20T12:51:25.046Z,76.45
2019-06-20T12:52:25.022Z,80.46